Terminal Aerodrome Forecast
Issued by NWS

Home | Current Version | Previous Version | Text Only | Print | Product List | Glossary On
Versions: 1 2 3 4 5 6 7 8 9 10 11 12 13 14 15 16 17
000
FTUS41 KBOX 281726
TAFFMH
TAF
KFMH 281726Z 2818/2918 22007KT P6SM SCT250
     FM290200 24005KT 3SM BR SCT008
     FM291100 23004KT P6SM BKN008
     FM291500 23010KT P6SM SCT008 BKN040=

USA.gov is the U.S. government's official web portal to all federal, state and local government web resources and services.